Airfield :







YOU CAN JOIN US ON...

 
LOGIN :

Register | Disclaimer

   EN    FR    IT 

 









Legend :    VFR   Marginal VFR   IFR   Intensive IFR   Very Intensive IFR
Visi :
Ceiling :
>= 8 km
>= 3000ft
5 to 8 km
1000 to 3000 ft
1500m to 5 km
500 to 1000 ft
800 to 1500m
200 to 500 ft
< 800m
< 200 ft
Symbols :   Thunderstorms  Fog  Heavy snow  Heavy precipitations  Wind > 20 kt






- Airport Elevation : 20 ft
- IATA code : BON


TNCB - Flamingo

CURRENT METAR :
  • 220055Z AUTO 09014KT 9000 FEW021/// 28/24 Q1013

EXPIRED METARs :
  • 212355Z AUTO 09013KT 9999 FEW019/// 27/24 Q1012
  • 212255Z AUTO 09010KT 9999 NSC 27/24 Q1011

TAF TAF TNCB
Valid from the 22 at 00:00 until the 23 at 06:00 UTC


212313Z 2200/2306 09015KT 9999 SCT020
PROB40
TEMPO 2200/2204 09020G30KT 4000 SHRA BKN014 SCT018CB
PROB40
TEMPO 2300/2306 4000 SHRA BKN014 SCT018CB
TNCF FIR / North America



MET'MAP, your aeronautical weather chart ! - Copyright ORBIFLY December 2007 - Disclaimer

ORBIFLY MET'MAP TEAM :

Programming & Development : Alexandra Zaïnal
Concept & original design : Baudouin d'Aumeries
Assistance for programming : Marc-Olivier Méhu
Technical & hardware support : Manuel Goepfert

Contact : metmap@orbifly.com




SOURCES & CREDITS :

   NOAA